Time;durP1;ratioP1;P1;durP2;ratioP2;P2;SDS_P1;SDS_P2;PMS_P1;PMS_P2;Temp;Humidity;BMP_temperature;BMP_pressure;BME280_temperature;BME280_humidity;BME280_pressure;Samples;Min_cycle;Max_cycle;Signal;HPM_P1;HPM_P2
2022/12/24 00:00:32;;;;;;;6.70;2.40;;;14.30;64.30;;;;;;4926766;29;20442;-84
2022/12/24 00:02:59;;;;;;;7.93;2.23;;;14.30;63.80;;;;;;4887761;29;20450;-82
2022/12/24 00:05:27;;;;;;;9.17;2.13;;;14.20;63.90;;;;;;4897683;29;20486;-84
2022/12/24 00:07:54;;;;;;;4.60;1.97;;;14.10;63.70;;;;;;4914414;29;20960;-86
2022/12/24 00:10:21;;;;;;;10.43;2.20;;;14.20;63.00;;;;;;4880161;29;20467;-84
2022/12/24 00:12:48;;;;;;;5.70;2.33;;;14.00;62.80;;;;;;4905667;29;20972;-84
2022/12/24 00:15:15;;;;;;;10.07;2.73;;;14.00;63.30;;;;;;4919906;29;20479;-84
2022/12/24 00:17:42;;;;;;;9.80;2.37;;;13.90;63.80;;;;;;4898516;29;20455;-86
2022/12/24 00:20:10;;;;;;;8.20;2.10;;;14.00;63.90;;;;;;4919285;29;20459;-85
2022/12/24 00:22:38;;;;;;;4.30;2.63;;;14.00;63.10;;;;;;4895731;29;21162;-85
2022/12/24 00:25:06;;;;;;;8.60;2.73;;;14.00;63.10;;;;;;4898109;29;20874;-83
2022/12/24 00:27:33;;;;;;;7.53;2.20;;;13.90;63.60;;;;;;4906007;29;20471;-85
2022/12/24 00:30:00;;;;;;;7.03;2.40;;;14.10;63.20;;;;;;4933583;29;20532;-82
2022/12/24 00:32:27;;;;;;;9.60;1.90;;;14.10;62.00;;;;;;4894875;29;20459;-82
2022/12/24 00:34:54;;;;;;;5.33;1.97;;;13.90;61.80;;;;;;4886717;29;20483;-85
2022/12/24 00:37:21;;;;;;;4.43;1.93;;;13.70;62.70;;;;;;4913459;29;20467;-86
2022/12/24 00:39:49;;;;;;;9.83;2.37;;;13.80;61.90;;;;;;4893450;29;20451;-84
2022/12/24 00:42:16;;;;;;;6.57;2.47;;;13.70;62.80;;;;;;4924958;29;20458;-81
2022/12/24 00:44:43;;;;;;;12.70;2.20;;;13.70;62.20;;;;;;4934820;29;20474;-86
2022/12/24 00:47:10;;;;;;;2.80;1.50;;;13.80;62.20;;;;;;4900729;29;20458;-82
2022/12/24 00:49:37;;;;;;;3.80;1.30;;;13.90;61.30;;;;;;4903681;29;20468;-87
2022/12/24 00:52:04;;;;;;;6.63;2.00;;;13.70;60.90;;;;;;4895631;29;20452;-84
2022/12/24 00:54:31;;;;;;;11.53;2.23;;;13.90;61.50;;;;;;4924755;29;20497;-85
2022/12/24 00:56:59;;;;;;;8.70;2.43;;;14.00;61.10;;;;;;4907184;29;20460;-85
2022/12/24 00:59:26;;;;;;;14.43;2.90;;;14.10;60.60;;;;;;4918458;29;20459;-84
2022/12/24 01:01:53;;;;;;;10.73;2.40;;;13.90;60.90;;;;;;4917696;29;20466;-85
2022/12/24 01:07:05;;;;;;;8.07;2.33;;;13.80;60.20;;;;;;4904333;29;20452;-85
2022/12/24 01:09:32;;;;;;;4.97;1.97;;;13.90;60.80;;;;;;4909003;29;20482;-86
2022/12/24 01:12:00;;;;;;;10.37;1.90;;;13.70;59.70;;;;;;4921265;29;20462;-86
2022/12/24 01:14:27;;;;;;;9.03;2.43;;;13.60;60.30;;;;;;4898216;29;20861;-84
2022/12/24 01:16:54;;;;;;;4.73;2.00;;;13.60;59.70;;;;;;4924395;29;20538;-87
2022/12/24 01:19:21;;;;;;;7.43;1.80;;;13.50;59.90;;;;;;4894362;29;20463;-85
2022/12/24 01:21:48;;;;;;;9.27;2.37;;;13.60;59.40;;;;;;4921137;29;20466;-85
2022/12/24 01:24:15;;;;;;;8.40;1.60;;;13.70;60.10;;;;;;4905013;29;20467;-84
2022/12/24 01:26:43;;;;;;;3.90;2.10;;;13.80;59.20;;;;;;4917120;29;20467;-86
2022/12/24 01:29:11;;;;;;;5.27;1.67;;;13.90;59.00;;;;;;4883163;29;20573;-87
2022/12/24 01:31:38;;;;;;;8.23;3.23;;;14.00;59.90;;;;;;4909418;29;20444;-84
2022/12/24 01:34:05;;;;;;;5.83;1.90;;;13.80;58.60;;;;;;4922915;29;20458;-85
2022/12/24 01:36:32;;;;;;;4.83;1.80;;;13.70;59.10;;;;;;4926554;29;20455;-87
2022/12/24 01:38:59;;;;;;;4.77;2.13;;;13.70;58.60;;;;;;4878387;29;20461;-87
2022/12/24 01:44:20;;;;;;;7.07;1.97;;;13.50;58.30;;;;;;4896945;29;20442;-86
2022/12/24 01:46:49;;;;;;;9.37;1.90;;;13.50;58.50;;;;;;4886946;29;20451;-87
2022/12/24 01:49:17;;;;;;;7.43;2.07;;;13.60;58.30;;;;;;4929343;29;20443;-85
2022/12/24 01:51:48;;;;;;;4.27;1.90;;;13.60;58.80;;;;;;4895172;29;20446;-85
2022/12/24 01:54:17;;;;;;;7.80;1.90;;;13.60;58.10;;;;;;4900344;29;20448;-85
2022/12/24 01:56:48;;;;;;;4.73;1.83;;;13.60;58.40;;;;;;4900260;29;20462;-85
2022/12/24 01:59:17;;;;;;;8.90;1.83;;;13.60;59.00;;;;;;4912537;29;20455;-85
2022/12/24 02:01:46;;;;;;;2.90;1.63;;;13.60;58.70;;;;;;4910564;29;20448;-85
2022/12/24 02:04:19;;;;;;;3.63;1.77;;;13.60;58.90;;;;;;4911112;29;20538;-85
2022/12/24 02:06:46;;;;;;;11.73;2.10;;;13.60;60.00;;;;;;4932056;29;20553;-86
2022/12/24 02:09:14;;;;;;;9.60;2.67;;;13.50;59.30;;;;;;4897197;29;20443;-85
2022/12/24 02:11:43;;;;;;;5.50;1.80;;;13.60;59.70;;;;;;4911225;29;20467;-85
2022/12/24 02:14:12;;;;;;;7.30;1.80;;;13.90;59.40;;;;;;4896935;29;20501;-89
2022/12/24 02:16:46;;;;;;;4.97;2.17;;;14.10;59.00;;;;;;4910521;29;20870;-86
2022/12/24 02:19:50;;;;;;;6.47;1.80;;;13.80;58.80;;;;;;4884600;29;20455;-86
2022/12/24 02:22:22;;;;;;;7.13;1.80;;;13.70;58.70;;;;;;4878970;29;20450;-85
2022/12/24 02:25:23;;;;;;;5.00;2.10;;;13.90;58.70;;;;;;4904682;29;21357;-86
2022/12/24 02:27:57;;;;;;;10.27;3.30;;;13.90;58.50;;;;;;4913165;29;20524;-89
2022/12/24 02:30:30;;;;;;;4.73;2.30;;;13.90;58.30;;;;;;4932928;29;20447;-85
2022/12/24 02:33:13;;;;;;;6.70;2.90;;;13.80;58.20;;;;;;4940580;28;20462;-85
2022/12/24 02:35:48;;;;;;;4.40;2.10;;;13.90;58.60;;;;;;4898532;29;20474;-86
2022/12/24 02:38:20;;;;;;;13.07;4.00;;;13.90;58.50;;;;;;4910339;29;20454;-87
2022/12/24 02:40:51;;;;;;;7.40;2.40;;;14.00;58.80;;;;;;4892593;29;20459;-85
2022/12/24 02:43:22;;;;;;;4.63;2.60;;;14.00;58.60;;;;;;4902921;29;20455;-86
2022/12/24 02:45:55;;;;;;;10.27;3.80;;;14.00;58.50;;;;;;4923486;29;20472;-88
2022/12/24 02:48:24;;;;;;;7.53;2.77;;;14.20;58.20;;;;;;4897761;29;21028;-85
2022/12/24 02:50:55;;;;;;;15.83;4.10;;;14.10;58.50;;;;;;4908829;29;20463;-85
2022/12/24 02:53:23;;;;;;;4.13;2.20;;;14.20;58.20;;;;;;4908723;29;20463;-85
2022/12/24 02:56:07;;;;;;;6.50;2.10;;;14.10;57.90;;;;;;4939116;28;20839;-88
2022/12/24 02:58:41;;;;;;;6.43;2.87;;;14.00;57.90;;;;;;4883860;29;20489;-87
2022/12/24 03:01:17;;;;;;;18.93;5.13;;;14.10;58.20;;;;;;4909532;29;20454;-89
2022/12/24 03:03:57;;;;;;;9.20;4.10;;;14.10;58.20;;;;;;4919987;29;20455;-84
2022/12/24 03:06:33;;;;;;;6.77;2.23;;;13.90;58.60;;;;;;4884704;29;20464;-86
2022/12/24 03:09:05;;;;;;;11.00;3.57;;;13.90;58.00;;;;;;4923559;29;20482;-87
2022/12/24 03:11:34;;;;;;;14.77;6.53;;;13.90;58.20;;;;;;4913051;29;20459;-86
2022/12/24 03:14:03;;;;;;;6.07;3.10;;;14.00;58.40;;;;;;4908543;29;20455;-85
2022/12/24 03:16:31;;;;;;;11.53;5.97;;;14.10;57.80;;;;;;4892875;29;21291;-85
2022/12/24 03:18:59;;;;;;;19.50;8.77;;;14.00;58.30;;;;;;4909702;29;20474;-85
2022/12/24 03:21:29;;;;;;;13.70;5.70;;;14.20;58.00;;;;;;4920181;29;20459;-87
2022/12/24 03:23:56;;;;;;;10.87;4.30;;;14.10;58.40;;;;;;4925072;29;20444;-85
2022/12/24 03:26:25;;;;;;;7.17;2.80;;;13.90;58.50;;;;;;4921663;29;20479;-86
2022/12/24 03:28:52;;;;;;;8.63;3.70;;;13.90;58.20;;;;;;4895394;29;20446;-86
2022/12/24 03:31:19;;;;;;;3.47;1.83;;;14.10;58.10;;;;;;4892169;29;20492;-88
2022/12/24 03:33:48;;;;;;;10.80;2.17;;;14.00;57.60;;;;;;4897515;29;20452;-85
2022/12/24 03:36:15;;;;;;;6.33;2.60;;;14.10;58.00;;;;;;4914392;29;20485;-87
2022/12/24 03:38:43;;;;;;;3.83;1.77;;;14.30;57.60;;;;;;4925712;29;20805;-86
2022/12/24 03:41:10;;;;;;;5.90;1.73;;;14.20;57.70;;;;;;4921447;29;20455;-86
2022/12/24 03:43:37;;;;;;;6.20;2.33;;;14.00;57.50;;;;;;4920943;29;20838;-85
2022/12/24 03:46:06;;;;;;;8.53;3.10;;;14.10;57.80;;;;;;4905577;29;20495;-86
2022/12/24 03:48:34;;;;;;;6.57;3.00;;;14.10;57.80;;;;;;4896623;29;20467;-85
2022/12/24 03:51:03;;;;;;;5.30;2.10;;;14.10;57.90;;;;;;4905386;29;20448;-86
2022/12/24 03:53:30;;;;;;;7.73;4.20;;;14.00;57.90;;;;;;4891655;29;20455;-86
2022/12/24 03:55:57;;;;;;;12.10;3.03;;;14.00;58.00;;;;;;4917622;29;20479;-85
2022/12/24 03:58:24;;;;;;;11.27;3.37;;;14.00;58.50;;;;;;4939823;28;21023;-86
2022/12/24 04:00:52;;;;;;;5.53;3.10;;;14.10;57.90;;;;;;4896862;29;20454;-89
2022/12/24 04:03:20;;;;;;;5.37;2.53;;;14.10;58.00;;;;;;4906280;29;20845;-85
2022/12/24 04:05:47;;;;;;;11.13;2.20;;;14.00;58.40;;;;;;4907556;29;20498;-85
2022/12/24 04:08:15;;;;;;;4.20;1.97;;;14.20;57.90;;;;;;4894906;29;20454;-85
2022/12/24 04:10:42;;;;;;;7.60;1.70;;;14.20;57.50;;;;;;4893600;29;20897;-87
2022/12/24 04:13:09;;;;;;;3.73;1.77;;;14.00;57.90;;;;;;4910457;29;20823;-86
2022/12/24 04:15:36;;;;;;;5.90;1.93;;;14.10;58.30;;;;;;4877306;29;20475;-85
2022/12/24 04:18:03;;;;;;;7.47;2.00;;;14.20;58.90;;;;;;4904444;29;20459;-86
2022/12/24 04:20:30;;;;;;;9.07;2.40;;;14.10;59.00;;;;;;4904890;29;20460;-84
2022/12/24 04:22:57;;;;;;;4.27;1.57;;;14.30;58.20;;;;;;4893892;29;20465;-87
2022/12/24 04:25:25;;;;;;;11.00;3.00;;;14.30;58.10;;;;;;4910246;29;20507;-85
2022/12/24 04:27:52;;;;;;;7.90;3.17;;;14.40;58.60;;;;;;4908630;29;20459;-84
2022/12/24 04:30:19;;;;;;;9.30;2.57;;;14.60;58.20;;;;;;4923884;29;20446;-85
2022/12/24 04:32:46;;;;;;;10.77;3.37;;;14.60;58.00;;;;;;4898035;29;20538;-84
2022/12/24 04:35:13;;;;;;;5.63;2.50;;;14.50;57.60;;;;;;4921549;29;20493;-87
2022/12/24 04:37:40;;;;;;;8.03;2.30;;;14.40;58.20;;;;;;4896334;29;20469;-85
2022/12/24 04:40:08;;;;;;;6.87;2.10;;;14.40;58.40;;;;;;4884683;29;20511;-86
2022/12/24 04:42:37;;;;;;;9.20;2.00;;;14.50;58.40;;;;;;4920042;29;20465;-85
2022/12/24 04:45:05;;;;;;;8.20;1.97;;;14.50;58.20;;;;;;4899282;29;21200;-86
2022/12/24 04:47:32;;;;;;;11.23;1.90;;;14.70;58.20;;;;;;4923940;29;20455;-85
2022/12/24 04:50:00;;;;;;;15.33;2.43;;;14.60;58.20;;;;;;4905309;29;20546;-86
2022/12/24 04:52:27;;;;;;;6.20;1.97;;;14.40;58.10;;;;;;4907923;29;20511;-86
2022/12/24 04:54:54;;;;;;;4.07;1.53;;;14.30;58.90;;;;;;4892089;29;21008;-87
2022/12/24 04:57:21;;;;;;;7.80;2.33;;;14.00;59.20;;;;;;4923343;29;20550;-85
2022/12/24 04:59:49;;;;;;;8.70;3.00;;;14.20;59.40;;;;;;4895338;29;20451;-88
2022/12/24 05:02:16;;;;;;;4.70;2.17;;;14.40;58.70;;;;;;4937437;28;20466;-85
2022/12/24 05:04:43;;;;;;;7.60;1.53;;;14.50;58.40;;;;;;4914440;29;20985;-86
2022/12/24 05:07:10;;;;;;;5.57;1.60;;;14.30;58.90;;;;;;4902266;29;20537;-87
2022/12/24 05:09:37;;;;;;;9.83;2.23;;;14.20;59.10;;;;;;4889707;29;20838;-86
2022/12/24 05:12:04;;;;;;;9.73;1.80;;;14.30;58.90;;;;;;4888155;29;20455;-86
2022/12/24 05:14:32;;;;;;;10.03;1.90;;;14.10;58.50;;;;;;4905967;29;20482;-85
2022/12/24 05:17:00;;;;;;;4.50;1.53;;;14.10;58.80;;;;;;4877731;29;20495;-88
2022/12/24 05:19:27;;;;;;;6.20;1.67;;;14.40;58.40;;;;;;4910275;29;20478;-87
2022/12/24 05:27:19;;;;;;;10.03;1.73;;;15.10;57.60;;;;;;4904702;29;21055;-88
2022/12/24 05:29:46;;;;;;;8.00;2.10;;;14.90;57.40;;;;;;4896353;29;21012;-88
2022/12/24 05:32:15;;;;;;;5.57;1.60;;;14.80;57.30;;;;;;4880313;29;20464;-86
2022/12/24 05:34:41;;;;;;;6.90;2.27;;;14.70;57.40;;;;;;4876145;29;21035;-85
2022/12/24 05:37:09;;;;;;;8.60;1.73;;;14.60;58.00;;;;;;4906735;29;20479;-85
2022/12/24 05:39:36;;;;;;;4.70;1.73;;;14.50;57.80;;;;;;4881112;29;20467;-86
2022/12/24 05:42:03;;;;;;;13.17;2.23;;;14.50;58.20;;;;;;4915116;29;20459;-86
2022/12/24 05:44:29;;;;;;;6.83;2.70;;;14.50;58.80;;;;;;4917155;29;20471;-86
2022/12/24 05:46:56;;;;;;;8.13;2.23;;;14.40;59.00;;;;;;4909782;29;20450;-84
2022/12/24 05:49:25;;;;;;;15.23;2.17;;;14.20;59.70;;;;;;4888613;29;20992;-85
2022/12/24 05:51:52;;;;;;;12.20;2.43;;;14.20;60.20;;;;;;4919673;29;20458;-87
2022/12/24 05:54:18;;;;;;;4.37;1.53;;;14.30;59.60;;;;;;4904142;29;20459;-85
2022/12/24 05:56:45;;;;;;;8.60;2.17;;;14.40;59.50;;;;;;4905974;29;20470;-86
2022/12/24 05:59:13;;;;;;;10.57;2.13;;;14.60;59.20;;;;;;4918029;29;21048;-85
2022/12/24 06:01:44;;;;;;;8.63;1.80;;;14.70;58.90;;;;;;4907809;29;20514;-86
2022/12/24 06:04:11;;;;;;;5.93;2.33;;;14.70;59.10;;;;;;4907163;29;20866;-86
2022/12/24 06:06:39;;;;;;;5.40;2.17;;;14.90;58.70;;;;;;4892736;29;20451;-85
2022/12/24 06:09:06;;;;;;;4.80;1.87;;;14.50;59.40;;;;;;4935834;29;20456;-85
2022/12/24 06:11:33;;;;;;;10.30;2.63;;;14.60;59.80;;;;;;4915393;29;20741;-85
2022/12/24 06:14:00;;;;;;;25.43;11.77;;;14.70;59.40;;;;;;4904481;29;20451;-86
2022/12/24 06:16:27;;;;;;;14.50;9.20;;;14.80;59.40;;;;;;4873317;29;20485;-84
2022/12/24 06:18:55;;;;;;;42.17;29.27;;;14.80;59.40;;;;;;4899525;29;20467;-85
2022/12/24 06:21:22;;;;;;;14.10;5.90;;;14.80;59.40;;;;;;4912470;29;20530;-86
2022/12/24 06:23:51;;;;;;;8.97;3.87;;;14.70;59.80;;;;;;4917369;29;20454;-87
2022/12/24 06:26:20;;;;;;;8.97;3.87;;;14.40;60.50;;;;;;4914204;29;20463;-83
2022/12/24 06:28:49;;;;;;;8.90;2.90;;;14.30;61.10;;;;;;4937559;28;20459;-87
2022/12/24 06:31:18;;;;;;;13.53;4.77;;;14.10;61.70;;;;;;4920046;29;20547;-84
2022/12/24 06:33:46;;;;;;;8.77;5.57;;;14.20;62.20;;;;;;4923766;29;20451;-86
2022/12/24 06:36:15;;;;;;;7.00;2.90;;;14.20;62.00;;;;;;4903542;29;20478;-85
2022/12/24 06:38:42;;;;;;;10.30;2.70;;;14.00;62.70;;;;;;4910537;29;20463;-84
2022/12/24 06:41:10;;;;;;;4.93;2.90;;;14.20;62.20;;;;;;4887333;29;20459;-85
2022/12/24 06:43:37;;;;;;;5.30;3.23;;;14.30;62.10;;;;;;4875701;29;21176;-85
2022/12/24 06:46:05;;;;;;;7.63;2.67;;;14.40;61.50;;;;;;4874071;29;20490;-85
2022/12/24 06:48:32;;;;;;;6.37;2.50;;;14.10;62.60;;;;;;4886035;29;20816;-86
2022/12/24 06:51:01;;;;;;;8.90;2.80;;;14.10;63.30;;;;;;4917130;29;20455;-85
2022/12/24 06:53:28;;;;;;;9.93;3.63;;;14.10;62.80;;;;;;4899119;29;20958;-87
2022/12/24 06:56:01;;;;;;;4.57;2.70;;;14.00;63.00;;;;;;4902884;29;20482;-85
2022/12/24 06:58:30;;;;;;;11.70;2.90;;;14.10;62.40;;;;;;4906766;29;20973;-87
2022/12/24 07:00:57;;;;;;;10.47;3.10;;;14.20;62.20;;;;;;4917228;29;20970;-85
2022/12/24 07:03:24;;;;;;;15.63;3.27;;;14.10;62.60;;;;;;4890921;29;20456;-85
2022/12/24 07:05:51;;;;;;;22.67;5.67;;;14.20;62.20;;;;;;4934358;28;20471;-85
2022/12/24 07:08:18;;;;;;;12.67;3.87;;;14.30;61.50;;;;;;4894124;29;20460;-85
2022/12/24 07:10:45;;;;;;;13.83;4.20;;;14.40;61.60;;;;;;4876231;29;20467;-85
2022/12/24 07:13:12;;;;;;;14.50;4.47;;;14.20;61.50;;;;;;4877394;29;20470;-85
2022/12/24 07:15:40;;;;;;;12.80;4.80;;;14.40;61.50;;;;;;4896454;29;20470;-86
2022/12/24 07:18:07;;;;;;;11.63;4.90;;;14.10;61.60;;;;;;4919496;29;20467;-86
2022/12/24 07:20:37;;;;;;;13.50;5.70;;;14.10;62.40;;;;;;4891966;29;20443;-86
2022/12/24 07:23:04;;;;;;;10.80;4.70;;;13.90;62.60;;;;;;4921727;29;20717;-86
2022/12/24 07:25:31;;;;;;;14.00;4.43;;;14.10;62.30;;;;;;4881144;29;20478;-85
2022/12/24 07:27:58;;;;;;;10.73;2.80;;;14.10;62.00;;;;;;4919061;29;20455;-85
2022/12/24 07:30:25;;;;;;;7.53;2.43;;;14.10;61.70;;;;;;4889989;29;20459;-86
2022/12/24 07:32:53;;;;;;;6.17;2.80;;;14.00;61.90;;;;;;4903595;29;20450;-83
2022/12/24 07:35:20;;;;;;;10.20;3.63;;;14.00;62.30;;;;;;4878311;29;20566;-85
2022/12/24 07:37:47;;;;;;;6.83;2.23;;;13.90;63.10;;;;;;4904424;29;20478;-85
2022/12/24 07:40:14;;;;;;;5.07;2.30;;;14.10;62.00;;;;;;4910620;29;20447;-86
2022/12/24 07:42:41;;;;;;;14.33;4.60;;;14.40;61.70;;;;;;4883961;29;20467;-85
2022/12/24 07:45:09;;;;;;;12.20;3.50;;;14.40;61.00;;;;;;4917585;29;20825;-85
2022/12/24 07:47:36;;;;;;;7.30;4.33;;;14.20;61.40;;;;;;4897490;29;20461;-86
2022/12/24 07:50:06;;;;;;;13.13;3.73;;;14.30;61.20;;;;;;4904746;29;20466;-85
2022/12/24 07:52:33;;;;;;;13.83;5.47;;;14.40;61.10;;;;;;4889741;29;21315;-85
2022/12/24 07:55:00;;;;;;;12.53;3.40;;;14.40;60.90;;;;;;4916258;29;20804;-83
2022/12/24 07:57:27;;;;;;;7.43;4.33;;;14.40;61.00;;;;;;4901094;29;20842;-84
2022/12/24 07:59:53;;;;;;;12.73;2.63;;;14.20;61.50;;;;;;4878941;29;20814;-85
2022/12/24 08:02:20;;;;;;;6.37;2.97;;;14.10;61.40;;;;;;4901193;29;20466;-86
2022/12/24 08:04:47;;;;;;;8.53;2.97;;;14.00;62.20;;;;;;4898146;29;20924;-85
2022/12/24 08:07:16;;;;;;;10.07;3.17;;;13.90;62.00;;;;;;4909822;29;20451;-85
2022/12/24 08:09:44;;;;;;;10.10;3.03;;;13.90;62.20;;;;;;4904483;29;20948;-86
2022/12/24 08:12:12;;;;;;;12.30;3.00;;;14.00;62.20;;;;;;4892650;29;20482;-86
2022/12/24 08:14:38;;;;;;;11.77;2.67;;;14.10;62.10;;;;;;4910386;29;20493;-85
2022/12/24 08:17:05;;;;;;;8.30;3.40;;;14.00;61.50;;;;;;4932223;28;20561;-84
2022/12/24 08:19:32;;;;;;;13.23;3.60;;;14.10;62.00;;;;;;4916797;29;20465;-85
2022/12/24 08:21:59;;;;;;;16.10;3.43;;;14.00;61.80;;;;;;4892199;29;20531;-83
2022/12/24 08:24:28;;;;;;;15.10;4.23;;;14.10;62.20;;;;;;4871607;29;20452;-85
2022/12/24 08:26:55;;;;;;;10.20;2.20;;;14.20;61.50;;;;;;4904631;29;20905;-85
2022/12/24 08:29:22;;;;;;;13.30;4.17;;;14.20;61.50;;;;;;4886943;29;20837;-85
2022/12/24 08:31:48;;;;;;;10.07;3.33;;;14.20;60.90;;;;;;4896961;29;20551;-86
2022/12/24 08:34:15;;;;;;;11.63;2.50;;;14.40;61.50;;;;;;4923181;29;20447;-83
2022/12/24 08:36:42;;;;;;;13.97;2.30;;;14.20;61.40;;;;;;4915668;29;20489;-85
2022/12/24 08:39:10;;;;;;;10.87;3.50;;;14.30;61.10;;;;;;4907603;29;20452;-85
2022/12/24 08:41:38;;;;;;;13.70;3.60;;;14.30;61.00;;;;;;4923657;29;21108;-86
2022/12/24 08:44:05;;;;;;;12.53;2.90;;;14.40;61.30;;;;;;4915961;29;20542;-85
2022/12/24 08:46:32;;;;;;;15.93;3.63;;;14.50;60.50;;;;;;4901436;29;20467;-86
2022/12/24 08:48:59;;;;;;;9.43;2.90;;;14.50;60.30;;;;;;4914866;29;20468;-85
2022/12/24 08:51:26;;;;;;;16.93;4.50;;;14.50;60.50;;;;;;4915397;29;20879;-87
2022/12/24 08:53:53;;;;;;;16.90;4.17;;;14.40;60.90;;;;;;4916324;29;20483;-86
2022/12/24 08:56:20;;;;;;;8.50;4.30;;;14.30;60.90;;;;;;4901213;29;20481;-86
2022/12/24 08:58:49;;;;;;;17.97;7.00;;;14.60;60.30;;;;;;4914224;29;20988;-86
2022/12/24 09:01:18;;;;;;;15.27;5.23;;;14.60;60.30;;;;;;4903264;29;20961;-86
2022/12/24 09:03:45;;;;;;;18.50;3.80;;;14.70;61.00;;;;;;4873931;29;20485;-86
2022/12/24 09:06:12;;;;;;;10.20;2.70;;;14.60;60.10;;;;;;4904954;29;20477;-86
2022/12/24 09:08:40;;;;;;;6.77;3.10;;;14.50;60.80;;;;;;4894128;29;20460;-86
2022/12/24 09:11:09;;;;;;;12.60;4.20;;;14.50;61.60;;;;;;4909987;29;20447;-85
2022/12/24 09:13:36;;;;;;;12.20;3.63;;;14.70;61.30;;;;;;4920805;29;20454;-86
2022/12/24 09:16:05;;;;;;;12.23;3.50;;;14.60;61.40;;;;;;4900444;29;20486;-85
2022/12/24 09:18:32;;;;;;;19.47;11.90;;;14.70;61.40;;;;;;4887363;29;20479;-82
2022/12/24 09:20:59;;;;;;;18.97;8.83;;;14.60;60.60;;;;;;4893229;29;20584;-84
2022/12/24 09:23:27;;;;;;;12.57;3.50;;;14.80;60.80;;;;;;4907682;29;20468;-84
2022/12/24 09:25:54;;;;;;;13.30;2.80;;;14.90;60.20;;;;;;4886823;29;20523;-85
2022/12/24 09:28:22;;;;;;;16.33;4.10;;;14.70;61.10;;;;;;4896784;29;20463;-86
2022/12/24 09:30:57;;;;;;;17.53;4.60;;;14.70;61.60;;;;;;4919473;29;20451;-84
2022/12/24 09:33:26;;;;;;;21.37;9.23;;;14.80;60.60;;;;;;4904888;29;20550;-84
2022/12/24 09:35:53;;;;;;;15.83;6.80;;;14.90;60.50;;;;;;4876053;29;20478;-86
2022/12/24 09:38:21;;;;;;;19.50;5.47;;;14.90;60.00;;;;;;4924146;29;20485;-83
2022/12/24 09:40:49;;;;;;;8.10;2.60;;;15.00;59.40;;;;;;4919067;29;20459;-85
2022/12/24 09:43:18;;;;;;;14.63;3.60;;;14.90;59.70;;;;;;4886797;29;20463;-84
2022/12/24 09:45:54;;;;;;;18.63;5.33;;;14.90;60.00;;;;;;4890474;29;20474;-85
2022/12/24 09:48:25;;;;;;;11.07;3.40;;;14.80;60.00;;;;;;4913725;29;20542;-84
2022/12/24 09:50:58;;;;;;;11.93;2.80;;;15.00;60.00;;;;;;4886311;29;20447;-84
2022/12/24 09:53:30;;;;;;;15.43;3.50;;;15.10;59.50;;;;;;4890017;29;20447;-83
2022/12/24 09:55:59;;;;;;;11.40;3.27;;;15.10;59.50;;;;;;4937384;28;20475;-86
2022/12/24 09:58:30;;;;;;;11.77;3.70;;;15.20;59.70;;;;;;4920166;29;20569;-83
2022/12/24 10:00:57;;;;;;;14.27;3.30;;;15.30;59.70;;;;;;4899971;29;20457;-85
2022/12/24 10:03:24;;;;;;;10.00;4.90;;;15.40;59.50;;;;;;4914469;29;20442;-85
2022/12/24 10:06:06;;;;;;;12.97;3.57;;;15.30;59.30;;;;;;4926487;29;20473;-85
2022/12/24 10:08:43;;;;;;;11.90;3.03;;;15.10;59.40;;;;;;4919016;29;20448;-83
2022/12/24 10:11:16;;;;;;;11.27;3.00;;;15.20;59.60;;;;;;4922496;29;20466;-85
2022/12/24 10:13:56;;;;;;;12.00;3.13;;;15.20;59.20;;;;;;4906890;29;20522;-86
2022/12/24 10:16:31;;;;;;;12.37;3.77;;;15.30;59.40;;;;;;4910677;29;20566;-85
2022/12/24 10:19:05;;;;;;;12.03;3.40;;;15.10;59.70;;;;;;4910617;29;20997;-85
2022/12/24 10:21:44;;;;;;;17.83;2.60;;;15.10;59.00;;;;;;4904876;29;20470;-85
2022/12/24 10:24:16;;;;;;;12.53;2.73;;;15.00;59.20;;;;;;4903041;29;20459;-85
2022/12/24 10:26:45;;;;;;;22.73;4.53;;;14.90;59.70;;;;;;4913995;29;20454;-85
2022/12/24 10:29:16;;;;;;;7.20;3.63;;;14.90;59.40;;;;;;4921323;29;20448;-83
2022/12/24 10:31:53;;;;;;;14.63;5.30;;;15.10;59.20;;;;;;4921025;29;20466;-84
2022/12/24 10:34:23;;;;;;;18.90;4.67;;;15.20;59.10;;;;;;4922684;29;20451;-87
2022/12/24 10:36:51;;;;;;;12.40;4.40;;;15.30;58.60;;;;;;4910993;29;20454;-86
2022/12/24 10:39:21;;;;;;;18.03;5.80;;;15.10;58.70;;;;;;4893231;29;20483;-84
2022/12/24 10:41:49;;;;;;;15.03;4.03;;;15.30;59.00;;;;;;4933002;29;20454;-83
2022/12/24 10:44:19;;;;;;;8.90;3.63;;;15.40;58.10;;;;;;4896022;29;20455;-84
2022/12/24 10:46:47;;;;;;;10.73;3.30;;;15.50;58.00;;;;;;4898306;29;20458;-85
2022/12/24 10:49:16;;;;;;;9.53;3.50;;;15.30;58.20;;;;;;4902842;29;20499;-84
2022/12/24 10:51:49;;;;;;;9.17;3.70;;;15.30;58.20;;;;;;4938749;28;20452;-86
2022/12/24 10:54:19;;;;;;;19.17;6.30;;;15.20;58.10;;;;;;4935241;29;20455;-82
2022/12/24 10:56:51;;;;;;;14.97;4.53;;;15.00;58.60;;;;;;4893834;29;20459;-85
2022/12/24 10:59:27;;;;;;;10.77;4.10;;;15.00;59.00;;;;;;4921432;29;20485;-84
2022/12/24 11:01:55;;;;;;;12.30;3.30;;;15.20;58.50;;;;;;4940877;28;20472;-85
2022/12/24 11:04:24;;;;;;;14.90;3.43;;;15.10;58.60;;;;;;4872521;29;21375;-83
2022/12/24 11:06:53;;;;;;;10.67;5.43;;;15.10;58.60;;;;;;4899513;29;20463;-88
2022/12/24 11:09:24;;;;;;;20.63;3.90;;;15.10;58.80;;;;;;4936359;29;20448;-85
2022/12/24 11:11:51;;;;;;;9.93;3.50;;;15.00;58.50;;;;;;4907554;29;20554;-84
2022/12/24 11:14:21;;;;;;;15.03;3.77;;;15.00;58.80;;;;;;4906120;29;20479;-86
2022/12/24 11:16:51;;;;;;;7.00;3.47;;;15.10;59.00;;;;;;4922746;29;20563;-87
2022/12/24 11:19:22;;;;;;;11.07;3.80;;;15.10;58.60;;;;;;4908416;29;20924;-85
2022/12/24 11:22:00;;;;;;;12.50;3.60;;;15.30;58.60;;;;;;4927023;29;20483;-84
2022/12/24 11:24:31;;;;;;;16.40;4.57;;;15.30;58.00;;;;;;4906672;29;20462;-87
2022/12/24 11:27:29;;;;;;;44.83;19.33;;;15.40;57.50;;;;;;4893574;29;20511;-85
2022/12/24 11:30:25;;;;;;;12.00;4.77;;;15.50;57.60;;;;;;4878878;29;20622;-85
2022/12/24 11:33:17;;;;;;;8.73;2.80;;;15.50;57.10;;;;;;4892827;29;21108;-84
2022/12/24 11:35:48;;;;;;;9.40;3.47;;;15.60;56.80;;;;;;4931576;29;20471;-86
2022/12/24 11:38:20;;;;;;;10.70;4.17;;;15.80;56.50;;;;;;4893164;29;20474;-83
2022/12/24 11:40:56;;;;;;;16.37;4.67;;;15.90;56.20;;;;;;4891113;29;20460;-84
2022/12/24 11:43:23;;;;;;;12.90;3.23;;;16.00;55.80;;;;;;4879180;29;20470;-84
2022/12/24 11:45:52;;;;;;;5.70;2.27;;;16.00;55.90;;;;;;4920432;29;20481;-86
2022/12/24 11:48:27;;;;;;;9.57;3.70;;;16.10;55.30;;;;;;4895308;29;20479;-85
2022/12/24 11:50:58;;;;;;;10.97;3.37;;;16.00;55.20;;;;;;4920328;29;21446;-84
2022/12/24 11:53:33;;;;;;;16.27;2.83;;;15.90;55.20;;;;;;4914892;29;20494;-85
2022/12/24 11:56:08;;;;;;;9.93;2.70;;;16.10;55.10;;;;;;4922871;29;20864;-85
2022/12/24 11:58:42;;;;;;;9.10;3.73;;;16.10;55.20;;;;;;4872197;29;20907;-87
2022/12/24 12:01:17;;;;;;;12.43;2.60;;;16.20;55.10;;;;;;4919962;29;20462;-85
2022/12/24 12:03:48;;;;;;;9.83;3.10;;;16.30;55.50;;;;;;4911353;29;21009;-86
2022/12/24 12:06:28;;;;;;;8.00;2.43;;;16.40;55.60;;;;;;4880883;29;20473;-84
2022/12/24 12:08:58;;;;;;;8.60;3.30;;;16.50;55.40;;;;;;4897339;29;20447;-85
2022/12/24 12:11:28;;;;;;;14.13;3.30;;;16.40;55.00;;;;;;4895380;29;20478;-86
2022/12/24 12:13:58;;;;;;;11.90;2.73;;;16.50;55.60;;;;;;4919373;29;20446;-83
2022/12/24 12:16:29;;;;;;;16.20;8.57;;;16.60;55.50;;;;;;4931648;29;20499;-84
2022/12/24 12:19:02;;;;;;;26.13;5.73;;;16.40;55.00;;;;;;4891210;29;20486;-83
2022/12/24 12:21:38;;;;;;;10.80;3.00;;;16.40;55.30;;;;;;4905609;29;20469;-84
2022/12/24 12:24:13;;;;;;;11.50;4.10;;;16.30;55.70;;;;;;4920908;29;20885;-85
2022/12/24 12:26:42;;;;;;;9.53;2.90;;;16.40;55.50;;;;;;4893661;29;20458;-84
2022/12/24 12:29:23;;;;;;;6.20;2.20;;;16.30;55.30;;;;;;4894609;29;20962;-85
2022/12/24 12:31:54;;;;;;;13.63;3.70;;;16.10;56.10;;;;;;4934520;28;20561;-86
2022/12/24 12:34:26;;;;;;;15.80;3.70;;;16.10;56.60;;;;;;4915402;29;20459;-82
2022/12/24 12:36:57;;;;;;;15.53;3.50;;;16.00;56.60;;;;;;4903780;29;20440;-85
2022/12/24 12:39:24;;;;;;;12.97;3.30;;;16.20;56.10;;;;;;4924027;29;20487;-83
2022/12/24 12:42:01;;;;;;;13.50;4.73;;;16.20;55.90;;;;;;4889529;29;20463;-85
2022/12/24 12:44:41;;;;;;;9.83;3.50;;;16.10;56.00;;;;;;4919924;29;20458;-85
2022/12/24 12:47:32;;;;;;;9.27;3.30;;;16.10;55.90;;;;;;4937835;28;20937;-87
2022/12/24 12:50:07;;;;;;;20.97;3.43;;;16.20;56.20;;;;;;4908034;29;20553;-85
2022/12/24 12:52:54;;;;;;;10.80;3.23;;;16.30;55.70;;;;;;4891833;29;20451;-85
2022/12/24 12:55:33;;;;;;;6.17;2.27;;;16.30;55.80;;;;;;4924957;29;20516;-87
2022/12/24 12:58:05;;;;;;;11.97;3.70;;;16.20;55.60;;;;;;4910150;29;20461;-85
2022/12/24 13:00:38;;;;;;;8.80;3.90;;;16.10;56.30;;;;;;4882016;29;20542;-84
2022/12/24 13:03:50;;;;;;;10.17;2.63;;;15.90;57.00;;;;;;4938430;28;20894;-84